Pagrindinis puslapis
METAR-TAF:

METAR-TAF

Oro uostai :

Apartado, Kolumbija

platuma: 07-49N, ilguma: 076-42W, Aukštis: 20 m

Dabartinis oras

Ataskaita buvo paskelbta 8 valandos ir 28 minutes, ne 23:00 UTC
Vėjas 5 kt iš Pietų/Pietryčių
Temperatūra 29°C
Drėgmė 79%
Slėgis 1007 hPa
Matomumas 10 km arba daugiau
Mažai debesys ne aukštis 1700 ft
Išsisklaidę debesys ne aukštis 9000 ft
Su prošvaistėmis ne aukštis 30000 ft

METAR: SKLC 102300Z 15005KT 9999 FEW017 SCT090 BKN300 29/25 A2974

Laikas: 02:28 (07:28 UTC)


TAF: trūkstamas

Orai ataskaitas ir orų prognozės (METAR, TAF).

turimą stotys yra geltonos ir raudonos taškus žemėlapyje.

Perkelti pele per norėdami pamatyti stoties vardą.

Tada spustelėkite, norėdami matyti oro stebėjimo ir prognozės.

Norėdami pakeisti žemėlapį: spustelėkite ant žalios mygtukų su juodo kryžiaus žemyn,; žalią mygtuką su brūkšneliu, jei norite nutolinti; arba žalių rodyklių gretimoms žemėlapius.


METAR-TAF: